sensor_id;sensor_type;location;lat;lon;timestamp;temperature;humidity
4960;DHT22;2495;48.200;11.532;2023-04-06T00:03:17;5.00;56.50
4960;DHT22;2495;48.200;11.532;2023-04-06T00:08:21;5.00;56.50
4960;DHT22;2495;48.200;11.532;2023-04-06T00:13:25;5.20;58.30
4960;DHT22;2495;48.200;11.532;2023-04-06T00:18:30;5.20;57.70
4960;DHT22;2495;48.200;11.532;2023-04-06T00:23:32;5.20;56.90
4960;DHT22;2495;48.200;11.532;2023-04-06T00:28:34;5.10;57.10
4960;DHT22;2495;48.200;11.532;2023-04-06T00:33:41;5.10;57.10
4960;DHT22;2495;48.200;11.532;2023-04-06T00:38:46;5.00;57.20
4960;DHT22;2495;48.200;11.532;2023-04-06T00:43:50;4.80;57.00
4960;DHT22;2495;48.200;11.532;2023-04-06T00:48:58;4.80;58.10
4960;DHT22;2495;48.200;11.532;2023-04-06T00:54:19;4.80;56.80
4960;DHT22;2495;48.200;11.532;2023-04-06T00:59:18;4.70;57.00
4960;DHT22;2495;48.200;11.532;2023-04-06T01:04:20;4.70;57.00
4960;DHT22;2495;48.200;11.532;2023-04-06T01:09:21;4.70;57.60
4960;DHT22;2495;48.200;11.532;2023-04-06T01:14:23;4.60;57.40
4960;DHT22;2495;48.200;11.532;2023-04-06T01:19:24;4.60;57.80
4960;DHT22;2495;48.200;11.532;2023-04-06T01:24:34;4.50;57.80
4960;DHT22;2495;48.200;11.532;2023-04-06T01:29:35;4.50;58.00
4960;DHT22;2495;48.200;11.532;2023-04-06T01:34:36;4.50;57.90
4960;DHT22;2495;48.200;11.532;2023-04-06T01:39:38;4.40;58.00
4960;DHT22;2495;48.200;11.532;2023-04-06T01:44:39;4.40;58.00
4960;DHT22;2495;48.200;11.532;2023-04-06T01:49:43;4.40;57.90
4960;DHT22;2495;48.200;11.532;2023-04-06T01:54:45;4.40;58.00
4960;DHT22;2495;48.200;11.532;2023-04-06T01:59:46;4.40;57.90
4960;DHT22;2495;48.200;11.532;2023-04-06T02:04:47;4.40;58.10
4960;DHT22;2495;48.200;11.532;2023-04-06T02:09:53;4.30;58.80
4960;DHT22;2495;48.200;11.532;2023-04-06T02:14:50;4.30;58.80
4960;DHT22;2495;48.200;11.532;2023-04-06T02:19:54;4.20;58.80
4960;DHT22;2495;48.200;11.532;2023-04-06T02:24:56;4.20;59.60
4960;DHT22;2495;48.200;11.532;2023-04-06T02:29:57;4.10;59.30
4960;DHT22;2495;48.200;11.532;2023-04-06T02:34:59;4.00;59.70
4960;DHT22;2495;48.200;11.532;2023-04-06T02:40:00;4.00;60.10
4960;DHT22;2495;48.200;11.532;2023-04-06T02:45:01;3.90;60.00
4960;DHT22;2495;48.200;11.532;2023-04-06T02:50:03;3.80;60.10
4960;DHT22;2495;48.200;11.532;2023-04-06T02:55:14;3.80;61.00
4960;DHT22;2495;48.200;11.532;2023-04-06T03:00:15;3.80;60.80
4960;DHT22;2495;48.200;11.532;2023-04-06T03:05:17;3.80;60.40
4960;DHT22;2495;48.200;11.532;2023-04-06T03:10:18;3.70;60.40
4960;DHT22;2495;48.200;11.532;2023-04-06T03:15:20;3.60;60.50
4960;DHT22;2495;48.200;11.532;2023-04-06T03:20:21;3.60;60.90
4960;DHT22;2495;48.200;11.532;2023-04-06T03:25:24;3.70;61.10
4960;DHT22;2495;48.200;11.532;2023-04-06T03:30:25;3.70;61.10
4960;DHT22;2495;48.200;11.532;2023-04-06T03:35:27;3.60;61.40
4960;DHT22;2495;48.200;11.532;2023-04-06T03:40:28;3.60;61.70
4960;DHT22;2495;48.200;11.532;2023-04-06T03:45:30;3.80;63.20
4960;DHT22;2495;48.200;11.532;2023-04-06T03:50:31;4.00;63.20
4960;DHT22;2495;48.200;11.532;2023-04-06T03:55:32;4.10;64.20
4960;DHT22;2495;48.200;11.532;2023-04-06T04:00:34;4.10;63.90
4960;DHT22;2495;48.200;11.532;2023-04-06T04:05:36;4.10;63.20
4960;DHT22;2495;48.200;11.532;2023-04-06T04:10:38;4.00;63.00
4960;DHT22;2495;48.200;11.532;2023-04-06T04:15:39;3.80;63.40
4960;DHT22;2495;48.200;11.532;2023-04-06T04:20:40;3.70;63.50
4960;DHT22;2495;48.200;11.532;2023-04-06T04:25:43;3.60;64.80
4960;DHT22;2495;48.200;11.532;2023-04-06T04:30:44;3.60;63.70
4960;DHT22;2495;48.200;11.532;2023-04-06T04:35:45;3.50;63.60
4960;DHT22;2495;48.200;11.532;2023-04-06T04:40:46;3.50;63.40
4960;DHT22;2495;48.200;11.532;2023-04-06T04:45:48;3.40;64.20
4960;DHT22;2495;48.200;11.532;2023-04-06T04:50:49;3.50;64.70
4960;DHT22;2495;48.200;11.532;2023-04-06T04:55:50;3.40;64.80
4960;DHT22;2495;48.200;11.532;2023-04-06T05:00:52;3.50;65.20
4960;DHT22;2495;48.200;11.532;2023-04-06T05:05:53;3.50;65.60
4960;DHT22;2495;48.200;11.532;2023-04-06T05:10:54;3.50;65.90
4960;DHT22;2495;48.200;11.532;2023-04-06T05:15:56;3.60;65.90
4960;DHT22;2495;48.200;11.532;2023-04-06T05:20:57;3.60;65.90
4960;DHT22;2495;48.200;11.532;2023-04-06T05:26:00;3.80;65.90
4960;DHT22;2495;48.200;11.532;2023-04-06T05:31:02;3.90;65.80
4960;DHT22;2495;48.200;11.532;2023-04-06T05:36:03;4.10;65.40
4960;DHT22;2495;48.200;11.532;2023-04-06T05:41:05;4.40;65.50
4960;DHT22;2495;48.200;11.532;2023-04-06T05:46:06;4.60;65.70
4960;DHT22;2495;48.200;11.532;2023-04-06T05:51:07;4.80;64.90
4960;DHT22;2495;48.200;11.532;2023-04-06T05:56:09;5.00;64.20
4960;DHT22;2495;48.200;11.532;2023-04-06T06:01:10;5.20;64.10
4960;DHT22;2495;48.200;11.532;2023-04-06T06:06:11;5.60;66.20
4960;DHT22;2495;48.200;11.532;2023-04-06T06:11:13;5.90;64.30
4960;DHT22;2495;48.200;11.532;2023-04-06T06:16:14;6.00;63.60
4960;DHT22;2495;48.200;11.532;2023-04-06T06:21:16;6.20;62.70
4960;DHT22;2495;48.200;11.532;2023-04-06T06:26:17;6.20;61.50
4960;DHT22;2495;48.200;11.532;2023-04-06T06:31:18;6.50;61.40
4960;DHT22;2495;48.200;11.532;2023-04-06T06:36:20;6.80;60.60
4960;DHT22;2495;48.200;11.532;2023-04-06T06:41:21;7.10;60.20
4960;DHT22;2495;48.200;11.532;2023-04-06T06:46:31;7.60;61.60
4960;DHT22;2495;48.200;11.532;2023-04-06T06:51:34;7.80;59.60
4960;DHT22;2495;48.200;11.532;2023-04-06T06:56:35;8.00;58.00
4960;DHT22;2495;48.200;11.532;2023-04-06T07:01:37;8.60;57.90
4960;DHT22;2495;48.200;11.532;2023-04-06T07:06:41;9.00;57.00
4960;DHT22;2495;48.200;11.532;2023-04-06T07:11:45;9.40;55.20
4960;DHT22;2495;48.200;11.532;2023-04-06T07:16:46;10.00;52.90
4960;DHT22;2495;48.200;11.532;2023-04-06T07:21:48;10.70;50.40
4960;DHT22;2495;48.200;11.532;2023-04-06T07:26:49;10.90;50.30
4960;DHT22;2495;48.200;11.532;2023-04-06T07:31:58;10.80;48.50
4960;DHT22;2495;48.200;11.532;2023-04-06T07:36:59;10.70;45.90
4960;DHT22;2495;48.200;11.532;2023-04-06T07:47:16;11.30;44.90
4960;DHT22;2495;48.200;11.532;2023-04-06T07:52:20;12.30;45.30
4960;DHT22;2495;48.200;11.532;2023-04-06T07:57:21;13.70;42.70
4960;DHT22;2495;48.200;11.532;2023-04-06T08:02:22;15.10;39.60
4960;DHT22;2495;48.200;11.532;2023-04-06T08:07:25;15.70;36.80
4960;DHT22;2495;48.200;11.532;2023-04-06T08:12:27;16.00;35.50
4960;DHT22;2495;48.200;11.532;2023-04-06T08:17:32;16.40;34.00
4960;DHT22;2495;48.200;11.532;2023-04-06T08:22:34;16.10;32.40
4960;DHT22;2495;48.200;11.532;2023-04-06T08:27:42;16.10;32.40
4960;DHT22;2495;48.200;11.532;2023-04-06T08:32:49;16.00;33.60
4960;DHT22;2495;48.200;11.532;2023-04-06T08:37:54;15.30;32.90
4960;DHT22;2495;48.200;11.532;2023-04-06T08:42:56;15.50;37.90
4960;DHT22;2495;48.200;11.532;2023-04-06T08:47:58;16.70;32.80
4960;DHT22;2495;48.200;11.532;2023-04-06T08:53:05;17.90;31.30
4960;DHT22;2495;48.200;11.532;2023-04-06T08:58:14;18.40;30.00
4960;DHT22;2495;48.200;11.532;2023-04-06T09:03:21;17.60;29.70
4960;DHT22;2495;48.200;11.532;2023-04-06T09:19:45;20.40;29.00
4960;DHT22;2495;48.200;11.532;2023-04-06T09:29:47;22.30;26.10
4960;DHT22;2495;48.200;11.532;2023-04-06T09:34:51;22.90;26.10
4960;DHT22;2495;48.200;11.532;2023-04-06T09:40:01;22.90;25.30
4960;DHT22;2495;48.200;11.532;2023-04-06T09:44:54;22.90;25.10
4960;DHT22;2495;48.200;11.532;2023-04-06T09:49:58;21.90;25.30
4960;DHT22;2495;48.200;11.532;2023-04-06T09:55:00;21.40;25.80
4960;DHT22;2495;48.200;11.532;2023-04-06T10:00:04;19.40;26.40
4960;DHT22;2495;48.200;11.532;2023-04-06T10:10:24;19.60;28.20
4960;DHT22;2495;48.200;11.532;2023-04-06T10:15:28;20.40;26.60
4960;DHT22;2495;48.200;11.532;2023-04-06T10:20:43;20.90;26.40
4960;DHT22;2495;48.200;11.532;2023-04-06T10:25:55;21.30;26.10
4960;DHT22;2495;48.200;11.532;2023-04-06T10:30:56;21.50;26.20
4960;DHT22;2495;48.200;11.532;2023-04-06T10:35:57;21.00;26.00
4960;DHT22;2495;48.200;11.532;2023-04-06T10:41:05;21.00;26.50
4960;DHT22;2495;48.200;11.532;2023-04-06T10:46:08;20.40;27.10
4960;DHT22;2495;48.200;11.532;2023-04-06T10:51:14;20.30;26.60
4960;DHT22;2495;48.200;11.532;2023-04-06T10:56:15;20.20;27.70
4960;DHT22;2495;48.200;11.532;2023-04-06T11:01:19;21.60;25.50
4960;DHT22;2495;48.200;11.532;2023-04-06T11:06:32;23.60;24.70
4960;DHT22;2495;48.200;11.532;2023-04-06T11:11:33;23.10;24.40
4960;DHT22;2495;48.200;11.532;2023-04-06T11:16:35;20.40;25.20
4960;DHT22;2495;48.200;11.532;2023-04-06T11:28:00;18.50;27.90
4960;DHT22;2495;48.200;11.532;2023-04-06T11:33:11;17.80;28.60
4960;DHT22;2495;48.200;11.532;2023-04-06T11:38:38;17.40;28.90
4960;DHT22;2495;48.200;11.532;2023-04-06T11:43:45;18.30;28.40
4960;DHT22;2495;48.200;11.532;2023-04-06T15:24:12;18.80;27.70
4960;DHT22;2495;48.200;11.532;2023-04-06T16:46:33;17.30;28.50
4960;DHT22;2495;48.200;11.532;2023-04-06T16:51:33;17.20;27.70
4960;DHT22;2495;48.200;11.532;2023-04-06T16:56:35;16.90;27.70
4960;DHT22;2495;48.200;11.532;2023-04-06T17:01:36;16.30;27.50
4960;DHT22;2495;48.200;11.532;2023-04-06T17:06:38;15.80;28.20
4960;DHT22;2495;48.200;11.532;2023-04-06T18:47:39;12.40;36.90
4960;DHT22;2495;48.200;11.532;2023-04-06T18:58:17;12.00;37.90
4960;DHT22;2495;48.200;11.532;2023-04-06T19:03:22;11.90;37.30
4960;DHT22;2495;48.200;11.532;2023-04-06T19:08:48;11.70;38.70
4960;DHT22;2495;48.200;11.532;2023-04-06T19:13:53;11.60;39.30
4960;DHT22;2495;48.200;11.532;2023-04-06T19:18:54;11.50;39.50
4960;DHT22;2495;48.200;11.532;2023-04-06T19:24:13;11.30;40.00
4960;DHT22;2495;48.200;11.532;2023-04-06T19:29:14;11.20;40.50
4960;DHT22;2495;48.200;11.532;2023-04-06T19:34:16;11.20;41.10
4960;DHT22;2495;48.200;11.532;2023-04-06T19:39:17;11.00;41.60
4960;DHT22;2495;48.200;11.532;2023-04-06T19:44:19;11.00;42.00
4960;DHT22;2495;48.200;11.532;2023-04-06T19:49:21;10.80;43.80
4960;DHT22;2495;48.200;11.532;2023-04-06T19:54:22;10.80;43.30
4960;DHT22;2495;48.200;11.532;2023-04-06T19:59:23;10.70;44.40
4960;DHT22;2495;48.200;11.532;2023-04-06T20:04:25;10.60;44.20
4960;DHT22;2495;48.200;11.532;2023-04-06T20:09:26;10.70;43.50
4960;DHT22;2495;48.200;11.532;2023-04-06T20:14:27;10.70;43.30
4960;DHT22;2495;48.200;11.532;2023-04-06T20:19:29;10.80;42.90
4960;DHT22;2495;48.200;11.532;2023-04-06T20:24:30;10.90;42.70
4960;DHT22;2495;48.200;11.532;2023-04-06T20:29:31;10.80;42.30
4960;DHT22;2495;48.200;11.532;2023-04-06T20:34:33;10.80;42.10
4960;DHT22;2495;48.200;11.532;2023-04-06T20:39:35;10.70;42.50
4960;DHT22;2495;48.200;11.532;2023-04-06T20:44:36;10.60;42.60
4960;DHT22;2495;48.200;11.532;2023-04-06T20:49:37;10.60;42.80
4960;DHT22;2495;48.200;11.532;2023-04-06T20:54:39;10.60;42.90
4960;DHT22;2495;48.200;11.532;2023-04-06T20:59:40;10.50;43.10
4960;DHT22;2495;48.200;11.532;2023-04-06T21:04:41;10.50;43.10
4960;DHT22;2495;48.200;11.532;2023-04-06T21:09:42;10.60;44.30
4960;DHT22;2495;48.200;11.532;2023-04-06T21:14:47;10.70;43.60
4960;DHT22;2495;48.200;11.532;2023-04-06T21:19:48;10.70;43.30
4960;DHT22;2495;48.200;11.532;2023-04-06T21:24:49;10.70;43.20
4960;DHT22;2495;48.200;11.532;2023-04-06T21:29:50;10.60;42.90
4960;DHT22;2495;48.200;11.532;2023-04-06T21:34:52;10.60;42.90
4960;DHT22;2495;48.200;11.532;2023-04-06T21:39:53;10.60;42.70
4960;DHT22;2495;48.200;11.532;2023-04-06T21:44:54;10.60;42.80
4960;DHT22;2495;48.200;11.532;2023-04-06T21:49:55;10.60;42.70
4960;DHT22;2495;48.200;11.532;2023-04-06T21:54:57;10.70;42.60
4960;DHT22;2495;48.200;11.532;2023-04-06T21:59:58;10.60;42.70
4960;DHT22;2495;48.200;11.532;2023-04-06T22:04:59;10.60;42.70
4960;DHT22;2495;48.200;11.532;2023-04-06T22:10:00;10.50;42.70
4960;DHT22;2495;48.200;11.532;2023-04-06T22:15:02;10.50;42.60
4960;DHT22;2495;48.200;11.532;2023-04-06T22:20:03;10.40;42.80
4960;DHT22;2495;48.200;11.532;2023-04-06T22:25:05;10.30;43.20
4960;DHT22;2495;48.200;11.532;2023-04-06T22:30:07;10.30;43.30
4960;DHT22;2495;48.200;11.532;2023-04-06T22:35:08;10.20;43.20
4960;DHT22;2495;48.200;11.532;2023-04-06T22:40:10;10.20;43.10
4960;DHT22;2495;48.200;11.532;2023-04-06T22:45:11;10.10;43.30
4960;DHT22;2495;48.200;11.532;2023-04-06T22:50:13;10.10;43.00
4960;DHT22;2495;48.200;11.532;2023-04-06T22:55:14;10.00;43.10
4960;DHT22;2495;48.200;11.532;2023-04-06T23:00:15;10.20;43.70
4960;DHT22;2495;48.200;11.532;2023-04-06T23:05:17;10.40;43.20
4960;DHT22;2495;48.200;11.532;2023-04-06T23:10:18;10.40;42.90
4960;DHT22;2495;48.200;11.532;2023-04-06T23:15:19;10.30;42.90
4960;DHT22;2495;48.200;11.532;2023-04-06T23:20:20;10.20;42.80
4960;DHT22;2495;48.200;11.532;2023-04-06T23:25:22;10.20;43.10
4960;DHT22;2495;48.200;11.532;2023-04-06T23:30:23;10.10;43.30
4960;DHT22;2495;48.200;11.532;2023-04-06T23:35:24;9.90;43.50
4960;DHT22;2495;48.200;11.532;2023-04-06T23:40:26;9.70;43.70
4960;DHT22;2495;48.200;11.532;2023-04-06T23:45:27;9.70;44.00
4960;DHT22;2495;48.200;11.532;2023-04-06T23:50:29;9.60;44.10
4960;DHT22;2495;48.200;11.532;2023-04-06T23:55:30;9.50;44.60
